Time;durP1;ratioP1;P1;durP2;ratioP2;P2;SDS_P1;SDS_P2;PMS_P1;PMS_P2;Temp;Humidity;BMP_temperature;BMP_pressure;BME280_temperature;BME280_humidity;BME280_pressure;Samples;Min_cycle;Max_cycle;Signal;HPM_P1;HPM_P2
2022/05/04 00:01:03;;;;;;;7.97;5.13;;;;;;;;;;5040237;28;20438;-85
2022/05/04 00:03:29;;;;;;;10.07;5.83;;;;;;;;;;5040802;28;20403;-85
2022/05/04 00:05:55;;;;;;;8.07;5.20;;;;;;;;;;5040513;28;20433;-86
2022/05/04 00:08:21;;;;;;;9.00;6.73;;;;;;;;;;5040601;28;20417;-85
2022/05/04 00:10:47;;;;;;;10.33;5.60;;;;;;;;;;5040257;28;20410;-85
2022/05/04 00:13:13;;;;;;;8.20;6.83;;;;;;;;;;5040981;28;20422;-86
2022/05/04 00:15:39;;;;;;;9.17;6.80;;;;;;;;;;5040417;28;20433;-85
2022/05/04 00:18:05;;;;;;;8.07;6.30;;;;;;;;;;5048288;28;20403;-83
2022/05/04 00:20:31;;;;;;;12.17;6.77;;;;;;;;;;5052867;28;20451;-83
2022/05/04 00:22:57;;;;;;;7.63;6.83;;;;;;;;;;5052103;28;20437;-83
2022/05/04 00:25:24;;;;;;;8.03;6.87;;;;;;;;;;5051759;28;20403;-83
2022/05/04 00:27:50;;;;;;;7.67;6.87;;;;;;;;;;5050567;28;20466;-85
2022/05/04 00:30:16;;;;;;;7.50;6.70;;;;;;;;;;5040352;28;20415;-85
2022/05/04 00:32:45;;;;;;;9.90;6.10;;;;;;;;;;5041236;28;20426;-85
2022/05/04 00:35:11;;;;;;;7.50;6.40;;;;;;;;;;5040393;28;20413;-85
2022/05/04 00:37:38;;;;;;;12.10;7.53;;;;;;;;;;5046451;28;20402;-83
2022/05/04 00:40:04;;;;;;;8.40;7.50;;;;;;;;;;5044389;28;20450;-85
2022/05/04 00:42:30;;;;;;;8.47;7.67;;;;;;;;;;5052844;28;20441;-84
2022/05/04 00:44:56;;;;;;;8.50;7.50;;;;;;;;;;5053294;28;20533;-85
2022/05/04 00:47:22;;;;;;;11.27;7.83;;;;;;;;;;5041870;28;20490;-84
2022/05/04 00:49:49;;;;;;;8.83;7.93;;;;;;;;;;5043312;28;20472;-85
2022/05/04 00:52:15;;;;;;;8.40;7.37;;;;;;;;;;5040399;28;20450;-85
2022/05/04 00:54:43;;;;;;;10.57;8.10;;;;;;;;;;5040475;28;20406;-85
2022/05/04 00:57:09;;;;;;;9.40;8.50;;;;;;;;;;5040375;28;20395;-85
2022/05/04 00:59:37;;;;;;;8.73;7.83;;;;;;;;;;5040308;28;20538;-85
2022/05/04 01:02:03;;;;;;;9.77;7.77;;;;;;;;;;5040214;28;20945;-85
2022/05/04 01:04:29;;;;;;;8.07;7.27;;;;;;;;;;5039963;28;20934;-85
2022/05/04 01:06:55;;;;;;;8.60;7.57;;;;;;;;;;5040183;28;20402;-85
2022/05/04 01:09:21;;;;;;;10.47;7.77;;;;;;;;;;5040511;28;20461;-85
2022/05/04 01:11:47;;;;;;;9.47;8.50;;;;;;;;;;5040250;28;20429;-85
2022/05/04 01:14:14;;;;;;;8.63;6.93;;;;;;;;;;5041283;28;20414;-85
2022/05/04 01:16:42;;;;;;;7.47;6.67;;;;;;;;;;5040635;28;20406;-85
2022/05/04 01:19:08;;;;;;;10.60;8.40;;;;;;;;;;5038554;28;20477;-85
2022/05/04 01:21:34;;;;;;;12.17;8.77;;;;;;;;;;5039389;28;20430;-85
2022/05/04 01:24:01;;;;;;;11.33;10.10;;;;;;;;;;5040254;28;20903;-85
2022/05/04 01:26:27;;;;;;;11.70;8.97;;;;;;;;;;5038638;28;20437;-84
2022/05/04 01:28:53;;;;;;;12.33;9.33;;;;;;;;;;5039695;28;20442;-85
2022/05/04 01:31:19;;;;;;;9.47;8.47;;;;;;;;;;5038330;28;20422;-83
2022/05/04 01:33:46;;;;;;;10.07;9.07;;;;;;;;;;5039633;28;20439;-84
2022/05/04 01:36:12;;;;;;;8.80;7.57;;;;;;;;;;5039556;28;20410;-84
2022/05/04 01:38:38;;;;;;;10.60;8.13;;;;;;;;;;5039529;28;20473;-84
2022/05/04 01:41:04;;;;;;;12.60;8.40;;;;;;;;;;5040075;28;20417;-85
2022/05/04 01:43:30;;;;;;;8.00;7.20;;;;;;;;;;5039234;28;20402;-85
2022/05/04 01:45:56;;;;;;;8.83;7.90;;;;;;;;;;5039333;28;20406;-86
2022/05/04 01:48:23;;;;;;;8.70;7.53;;;;;;;;;;5039124;28;20406;-86
2022/05/04 01:50:49;;;;;;;8.47;7.50;;;;;;;;;;5038932;28;20437;-84
2022/05/04 01:53:15;;;;;;;10.83;7.97;;;;;;;;;;5037230;28;20442;-85
2022/05/04 01:55:42;;;;;;;9.80;8.50;;;;;;;;;;5038765;28;20418;-86
2022/05/04 01:58:08;;;;;;;9.90;8.57;;;;;;;;;;5032099;28;20434;-84
2022/05/04 02:00:34;;;;;;;9.33;8.43;;;;;;;;;;5018356;28;20442;-84
2022/05/04 02:03:00;;;;;;;8.73;7.93;;;;;;;;;;5017456;28;20526;-86
2022/05/04 02:05:27;;;;;;;8.80;7.90;;;;;;;;;;5019321;28;20418;-84
2022/05/04 02:07:54;;;;;;;16.00;8.30;;;;;;;;;;5019123;28;20408;-85
2022/05/04 02:10:21;;;;;;;9.50;8.60;;;;;;;;;;5019461;28;20487;-85
2022/05/04 02:12:47;;;;;;;10.40;9.27;;;;;;;;;;5019305;28;20424;-84
2022/05/04 02:15:13;;;;;;;10.83;8.83;;;;;;;;;;5019502;28;20407;-84
2022/05/04 02:17:39;;;;;;;16.57;9.10;;;;;;;;;;5019423;28;20517;-86
2022/05/04 02:20:05;;;;;;;11.73;9.37;;;;;;;;;;5018550;28;20451;-85
2022/05/04 02:22:32;;;;;;;11.03;9.80;;;;;;;;;;5018522;28;20434;-86
2022/05/04 02:24:58;;;;;;;10.23;9.13;;;;;;;;;;5018277;28;20815;-82
2022/05/04 02:27:24;;;;;;;10.83;9.73;;;;;;;;;;5023838;28;20410;-83
2022/05/04 02:29:50;;;;;;;11.47;9.67;;;;;;;;;;5026604;28;20419;-86
2022/05/04 02:32:16;;;;;;;12.27;10.67;;;;;;;;;;5019690;28;20473;-85
2022/05/04 02:40:12;;;;;;;10.87;8.77;;;;;;;;;;5018819;28;20434;-86
2022/05/04 02:42:38;;;;;;;11.87;10.00;;;;;;;;;;5019213;28;20431;-86
2022/05/04 02:45:05;;;;;;;9.97;8.97;;;;;;;;;;5018665;28;20403;-86
2022/05/04 02:47:32;;;;;;;9.33;7.83;;;;;;;;;;5018769;28;20427;-86
2022/05/04 02:49:58;;;;;;;10.33;9.20;;;;;;;;;;5019557;28;20418;-86
2022/05/04 02:52:24;;;;;;;11.17;9.20;;;;;;;;;;5019195;28;20477;-86
2022/05/04 02:54:50;;;;;;;9.97;8.90;;;;;;;;;;5019467;28;20411;-86
2022/05/04 02:57:16;;;;;;;15.60;8.90;;;;;;;;;;5017677;28;20399;-85
2022/05/04 02:59:42;;;;;;;10.77;9.00;;;;;;;;;;5019032;28;20443;-85
2022/05/04 03:04:53;;;;;;;12.17;8.40;;;;;;;;;;5020225;28;20434;-85
2022/05/04 03:07:20;;;;;;;12.30;8.90;;;;;;;;;;5021660;28;20420;-84
2022/05/04 03:09:46;;;;;;;9.33;8.33;;;;;;;;;;5033226;28;20417;-84
2022/05/04 03:12:12;;;;;;;9.93;8.93;;;;;;;;;;5023550;28;20431;-85
2022/05/04 03:14:38;;;;;;;9.57;8.57;;;;;;;;;;5017969;28;20419;-85
2022/05/04 03:17:04;;;;;;;11.60;9.50;;;;;;;;;;5019239;28;20430;-86
2022/05/04 03:19:30;;;;;;;10.40;8.17;;;;;;;;;;5021002;28;20482;-86
2022/05/04 03:21:57;;;;;;;11.40;7.97;;;;;;;;;;5021628;28;20424;-86
2022/05/04 03:24:23;;;;;;;8.97;8.07;;;;;;;;;;5021915;28;20410;-86
2022/05/04 03:26:49;;;;;;;12.70;8.97;;;;;;;;;;5021612;28;20438;-86
2022/05/04 03:29:16;;;;;;;9.30;8.40;;;;;;;;;;5022047;28;20411;-86
2022/05/04 03:31:42;;;;;;;11.60;10.40;;;;;;;;;;5028321;28;20427;-86
2022/05/04 03:34:08;;;;;;;11.43;7.80;;;;;;;;;;5022358;28;20403;-84
2022/05/04 03:36:37;;;;;;;10.33;7.10;;;;;;;;;;5020062;28;20446;-83
2022/05/04 03:39:04;;;;;;;9.10;7.63;;;;;;;;;;5021820;28;20815;-86
2022/05/04 03:41:30;;;;;;;7.53;6.50;;;;;;;;;;5022286;28;20431;-85
2022/05/04 03:43:56;;;;;;;6.60;5.83;;;;;;;;;;5029641;28;20417;-83
2022/05/04 03:46:23;;;;;;;6.47;5.40;;;;;;;;;;5041129;28;20420;-83
2022/05/04 03:48:52;;;;;;;7.60;6.67;;;;;;;;;;5024816;28;20415;-86
2022/05/04 03:51:19;;;;;;;10.00;8.00;;;;;;;;;;5022451;28;20470;-85
2022/05/04 03:53:45;;;;;;;8.97;7.37;;;;;;;;;;5021997;28;20446;-86
2022/05/04 03:56:12;;;;;;;7.43;6.70;;;;;;;;;;5022157;28;20414;-85
2022/05/04 03:58:38;;;;;;;6.87;5.93;;;;;;;;;;5021893;28;20396;-85
2022/05/04 04:01:05;;;;;;;7.67;6.97;;;;;;;;;;5020328;28;20407;-86
2022/05/04 04:03:32;;;;;;;7.87;6.50;;;;;;;;;;5022846;28;20907;-86
2022/05/04 04:05:58;;;;;;;8.77;6.10;;;;;;;;;;5023050;28;20396;-85
2022/05/04 04:08:24;;;;;;;7.67;6.50;;;;;;;;;;5023226;28;20403;-86
2022/05/04 04:10:50;;;;;;;6.70;6.00;;;;;;;;;;5023882;28;20403;-86
2022/05/04 04:13:17;;;;;;;7.33;6.27;;;;;;;;;;5022611;28;20504;-86
2022/05/04 04:15:43;;;;;;;6.97;5.93;;;;;;;;;;5038317;28;20414;-86
2022/05/04 04:18:09;;;;;;;6.80;5.83;;;;;;;;;;5041955;28;20398;-85
2022/05/04 04:23:20;;;;;;;6.40;5.80;;;;;;;;;;5041202;28;20410;-85
2022/05/04 04:25:46;;;;;;;5.27;4.77;;;;;;;;;;5041692;28;20490;-85
2022/05/04 04:28:13;;;;;;;5.60;4.60;;;;;;;;;;5041525;28;20845;-86
2022/05/04 04:30:39;;;;;;;4.90;4.20;;;;;;;;;;5040829;28;20743;-86
2022/05/04 04:33:08;;;;;;;4.80;4.37;;;;;;;;;;5041092;28;20419;-85
2022/05/04 04:35:35;;;;;;;5.27;4.30;;;;;;;;;;5039415;28;20412;-86
2022/05/04 04:38:01;;;;;;;6.60;4.63;;;;;;;;;;5041303;28;20430;-85
2022/05/04 04:40:27;;;;;;;9.90;5.57;;;;;;;;;;5040509;28;20442;-86
2022/05/04 04:42:53;;;;;;;5.10;4.60;;;;;;;;;;5053554;28;20422;-82
2022/05/04 04:45:19;;;;;;;4.90;4.40;;;;;;;;;;5057418;28;20398;-82
2022/05/04 04:47:46;;;;;;;5.23;4.10;;;;;;;;;;5043773;28;20856;-86
2022/05/04 04:50:12;;;;;;;4.20;3.80;;;;;;;;;;5040774;28;20415;-86
2022/05/04 04:52:38;;;;;;;8.33;4.30;;;;;;;;;;5040505;28;20534;-86
2022/05/04 04:55:05;;;;;;;5.67;5.03;;;;;;;;;;5039591;28;20418;-86
2022/05/04 04:57:33;;;;;;;6.00;5.40;;;;;;;;;;5040104;28;20433;-86
2022/05/04 04:59:59;;;;;;;5.73;5.23;;;;;;;;;;5040072;28;20442;-86
2022/05/04 05:02:26;;;;;;;6.33;4.57;;;;;;;;;;5039667;28;20426;-86
2022/05/04 05:04:52;;;;;;;6.10;4.70;;;;;;;;;;5038727;28;20937;-86
2022/05/04 05:07:18;;;;;;;6.23;5.10;;;;;;;;;;5040929;28;20481;-86
2022/05/04 05:09:44;;;;;;;5.10;4.43;;;;;;;;;;5022108;28;20510;-86
2022/05/04 05:12:10;;;;;;;5.72;5.00;;;;;;;;;;5019714;28;20418;-89
2022/05/04 05:17:21;;;;;;;5.03;4.00;;;;;;;;;;5013949;28;20919;-86
2022/05/04 05:19:47;;;;;;;14.17;5.10;;;;;;;;;;5000647;28;20450;-86
2022/05/04 05:22:13;;;;;;;5.17;4.27;;;;;;;;;;5014175;28;21023;-86
2022/05/04 05:24:39;;;;;;;4.83;3.83;;;;;;;;;;5013516;28;20779;-86
2022/05/04 05:27:08;;;;;;;4.77;3.90;;;;;;;;;;5006925;28;20435;-86
2022/05/04 05:29:35;;;;;;;5.23;4.00;;;;;;;;;;5013883;28;20424;-87
2022/05/04 05:32:01;;;;;;;5.57;4.60;;;;;;;;;;5013378;28;20460;-87
2022/05/04 05:34:31;;;;;;;4.90;4.40;;;;;;;;;;4998952;28;20487;-87
2022/05/04 05:36:57;;;;;;;5.37;4.73;;;;;;;;;;5006784;28;20410;-87
2022/05/04 05:39:23;;;;;;;7.13;3.97;;;;;;;;;;5028661;28;20514;-87
2022/05/04 05:41:49;;;;;;;7.00;4.50;;;;;;;;;;5034347;28;20423;-88
2022/05/04 05:44:15;;;;;;;4.93;4.40;;;;;;;;;;5021253;28;20915;-88
2022/05/04 05:46:41;;;;;;;4.83;4.30;;;;;;;;;;5020658;28;20403;-88
2022/05/04 05:49:07;;;;;;;5.90;5.03;;;;;;;;;;5011337;28;20487;-88
2022/05/04 05:51:33;;;;;;;6.50;5.67;;;;;;;;;;5000223;28;20506;-89
2022/05/04 05:53:59;;;;;;;4.47;3.80;;;;;;;;;;4999758;28;20484;-89
2022/05/04 05:56:25;;;;;;;11.30;5.27;;;;;;;;;;5015533;28;20908;-88
2022/05/04 05:58:51;;;;;;;5.20;4.20;;;;;;;;;;5019335;28;20407;-89
2022/05/04 06:01:19;;;;;;;5.57;4.87;;;;;;;;;;5020046;28;20543;-88
2022/05/04 06:03:45;;;;;;;9.03;4.73;;;;;;;;;;5018423;28;20445;-89
2022/05/04 06:06:12;;;;;;;6.23;5.50;;;;;;;;;;5019054;28;20511;-88
2022/05/04 06:08:38;;;;;;;6.17;5.00;;;;;;;;;;5010297;28;20423;-89
2022/05/04 06:11:05;;;;;;;6.77;4.93;;;;;;;;;;5013243;28;20436;-87
2022/05/04 06:13:31;;;;;;;8.90;6.00;;;;;;;;;;5008252;28;20906;-87
2022/05/04 06:15:57;;;;;;;5.63;5.00;;;;;;;;;;4997088;28;20403;-84
2022/05/04 06:18:23;;;;;;;9.10;5.90;;;;;;;;;;5013485;28;20828;-85
2022/05/04 06:20:49;;;;;;;6.30;4.67;;;;;;;;;;5016861;28;20956;-85
2022/05/04 06:23:15;;;;;;;7.90;5.33;;;;;;;;;;5017266;28;20958;-87
2022/05/04 06:25:42;;;;;;;8.13;5.23;;;;;;;;;;5010988;28;20934;-83
2022/05/04 06:28:08;;;;;;;5.03;3.90;;;;;;;;;;5000514;28;20412;-86
2022/05/04 06:36:04;;;;;;;5.77;3.57;;;;;;;;;;5020509;28;20510;-85
2022/05/04 06:38:30;;;;;;;3.70;3.07;;;;;;;;;;5015653;28;20469;-86
2022/05/04 06:40:57;;;;;;;8.47;3.87;;;;;;;;;;5016761;28;20697;-85
2022/05/04 06:43:23;;;;;;;4.17;3.03;;;;;;;;;;5020341;28;20407;-82
2022/05/04 06:45:49;;;;;;;4.43;3.50;;;;;;;;;;5020948;28;20434;-82
2022/05/04 06:48:15;;;;;;;4.73;2.83;;;;;;;;;;5019893;28;20502;-86
2022/05/04 06:50:41;;;;;;;12.20;7.73;;;;;;;;;;5017690;28;20435;-86
2022/05/04 06:53:07;;;;;;;5.73;3.07;;;;;;;;;;5034925;28;20442;-87
2022/05/04 06:55:33;;;;;;;3.40;2.90;;;;;;;;;;5029266;28;20429;-86
2022/05/04 06:57:59;;;;;;;3.60;3.30;;;;;;;;;;5029189;28;20426;-86
2022/05/04 07:00:32;;;;;;;5.82;3.60;;;;;;;;;;5019703;28;20841;-83
2022/05/04 07:02:58;;;;;;;6.27;3.70;;;;;;;;;;5007454;28;20439;-86
2022/05/04 07:05:24;;;;;;;4.30;3.20;;;;;;;;;;5012402;28;20446;-87
2022/05/04 07:07:50;;;;;;;6.70;3.03;;;;;;;;;;5022463;28;20615;-83
2022/05/04 07:10:16;;;;;;;2.87;2.50;;;;;;;;;;5008230;28;20400;-84
2022/05/04 07:12:42;;;;;;;3.67;2.53;;;;;;;;;;5033641;28;20474;-81
2022/05/04 07:15:09;;;;;;;5.53;2.53;;;;;;;;;;5026050;28;20450;-83
2022/05/04 07:17:35;;;;;;;3.10;2.47;;;;;;;;;;5029585;28;20900;-86
2022/05/04 07:20:01;;;;;;;3.73;2.40;;;;;;;;;;5024810;28;20522;-85
2022/05/04 07:22:27;;;;;;;3.50;2.57;;;;;;;;;;5031206;28;20460;-82
2022/05/04 07:24:53;;;;;;;4.40;2.50;;;;;;;;;;5034353;28;20439;-82
2022/05/04 07:27:19;;;;;;;5.73;2.53;;;;;;;;;;5027005;28;20417;-86
2022/05/04 07:29:46;;;;;;;4.00;2.77;;;;;;;;;;5022331;28;20866;-85
2022/05/04 07:32:13;;;;;;;4.70;2.90;;;;;;;;;;5019062;28;20442;-84
2022/05/04 07:34:40;;;;;;;3.47;2.47;;;;;;;;;;5014419;28;20420;-87
2022/05/04 07:37:06;;;;;;;3.00;2.17;;;;;;;;;;5026675;28;20459;-86
2022/05/04 07:42:27;;;;;;;2.43;2.03;;;;;;;;;;5017047;28;20414;-85
2022/05/04 07:45:02;;;;;;;3.03;2.50;;;;;;;;;;5043389;28;20465;-85
2022/05/04 07:47:29;;;;;;;3.80;2.30;;;;;;;;;;5025849;28;20421;-84
2022/05/04 07:49:56;;;;;;;3.07;2.50;;;;;;;;;;5037103;28;20407;-84
2022/05/04 07:52:22;;;;;;;2.73;2.33;;;;;;;;;;5036176;28;20461;-84
2022/05/04 07:54:48;;;;;;;3.80;2.27;;;;;;;;;;5029858;28;20403;-85
2022/05/04 07:57:14;;;;;;;3.07;2.40;;;;;;;;;;5022171;28;20484;-85
2022/05/04 07:59:40;;;;;;;3.78;2.40;;;;;;;;;;5027058;28;20436;-87
2022/05/04 08:04:52;;;;;;;4.93;2.03;;;;;;;;;;5021708;28;20434;-85
2022/05/04 08:07:18;;;;;;;3.07;2.00;;;;;;;;;;5035394;28;20407;-82
2022/05/04 08:09:44;;;;;;;3.50;2.27;;;;;;;;;;5037255;28;20415;-80
2022/05/04 08:12:12;;;;;;;2.60;2.10;;;;;;;;;;5036231;28;20435;-84
2022/05/04 08:14:41;;;;;;;2.70;2.20;;;;;;;;;;5028732;28;20439;-85
2022/05/04 08:17:08;;;;;;;2.63;2.17;;;;;;;;;;5023725;28;20445;-83
2022/05/04 08:19:34;;;;;;;2.80;2.00;;;;;;;;;;5040021;28;20540;-83
2022/05/04 08:22:01;;;;;;;2.87;2.33;;;;;;;;;;5023792;28;20439;-83
2022/05/04 08:24:28;;;;;;;2.93;1.93;;;;;;;;;;5029480;28;20899;-84
2022/05/04 08:26:54;;;;;;;3.30;1.70;;;;;;;;;;5029274;28;20399;-82
2022/05/04 08:29:20;;;;;;;3.93;2.70;;;;;;;;;;5039365;28;20478;-81
2022/05/04 08:31:46;;;;;;;6.30;2.57;;;;;;;;;;5021873;28;20485;-81
2022/05/04 08:34:12;;;;;;;3.10;2.10;;;;;;;;;;5020621;28;20488;-83
2022/05/04 08:36:38;;;;;;;4.60;2.50;;;;;;;;;;5022985;28;20970;-82
2022/05/04 08:39:06;;;;;;;3.30;2.20;;;;;;;;;;5031117;28;20536;-83
2022/05/04 08:41:33;;;;;;;2.70;2.30;;;;;;;;;;5035164;28;20515;-82
2022/05/04 08:43:59;;;;;;;2.27;1.57;;;;;;;;;;5021974;28;20411;-83
2022/05/04 08:46:25;;;;;;;2.00;1.57;;;;;;;;;;5034701;28;20490;-84
2022/05/04 08:48:52;;;;;;;2.50;1.50;;;;;;;;;;5041687;28;20406;-85
2022/05/04 08:51:18;;;;;;;2.37;1.90;;;;;;;;;;5027402;28;20446;-84
2022/05/04 08:53:45;;;;;;;3.40;2.20;;;;;;;;;;5037233;28;20883;-83
2022/05/04 08:56:13;;;;;;;2.47;1.73;;;;;;;;;;5034321;28;20410;-83
2022/05/04 08:58:40;;;;;;;2.70;1.63;;;;;;;;;;5035077;28;20420;-84
2022/05/04 09:01:06;;;;;;;3.37;2.27;;;;;;;;;;5040379;28;20449;-84
2022/05/04 09:03:33;;;;;;;3.37;1.70;;;;;;;;;;5028185;28;20758;-82
2022/05/04 09:05:59;;;;;;;2.87;1.63;;;;;;;;;;5033770;28;20408;-82
2022/05/04 09:08:25;;;;;;;2.80;1.80;;;;;;;;;;5034484;28;20835;-82
2022/05/04 09:10:51;;;;;;;5.77;1.90;;;;;;;;;;5024894;28;20441;-85
2022/05/04 09:13:21;;;;;;;2.20;1.50;;;;;;;;;;5037830;28;20435;-82
2022/05/04 09:15:47;;;;;;;2.03;1.30;;;;;;;;;;5030299;28;20409;-83
2022/05/04 09:18:16;;;;;;;2.10;1.30;;;;;;;;;;5048203;28;20413;-85
2022/05/04 09:20:51;;;;;;;3.10;1.57;;;;;;;;;;5030463;28;20447;-84
2022/05/04 09:23:19;;;;;;;2.77;1.70;;;;;;;;;;5036209;28;20461;-83
2022/05/04 09:25:48;;;;;;;3.00;1.70;;;;;;;;;;5029109;28;20411;-81
2022/05/04 09:28:15;;;;;;;2.57;1.87;;;;;;;;;;5028558;28;20406;-83
2022/05/04 09:30:45;;;;;;;3.17;2.20;;;;;;;;;;5033179;28;20416;-81
2022/05/04 09:33:12;;;;;;;3.33;1.90;;;;;;;;;;5022846;28;20471;-83
2022/05/04 09:35:41;;;;;;;3.60;1.83;;;;;;;;;;5027864;28;20441;-82
2022/05/04 09:46:34;;;;;;;2.10;1.50;;;;;;;;;;5032102;28;20417;-82
2022/05/04 09:49:06;;;;;;;2.30;1.80;;;;;;;;;;5025811;28;20435;-84
2022/05/04 09:51:32;;;;;;;2.53;1.57;;;;;;;;;;5017941;28;20465;-84
2022/05/04 09:54:12;;;;;;;2.47;1.40;;;;;;;;;;5026113;28;20510;-85
2022/05/04 09:56:38;;;;;;;2.03;1.80;;;;;;;;;;5017867;28;20430;-86
2022/05/04 09:59:08;;;;;;;1.93;1.70;;;;;;;;;;5010186;28;20408;-83
2022/05/04 10:01:34;;;;;;;2.30;1.90;;;;;;;;;;5030528;28;20465;-85
2022/05/04 10:04:00;;;;;;;7.40;2.07;;;;;;;;;;5023865;28;20414;-86
2022/05/04 10:06:27;;;;;;;2.80;1.50;;;;;;;;;;5028833;28;20406;-86
2022/05/04 10:08:53;;;;;;;2.60;2.13;;;;;;;;;;5018547;28;20427;-84
2022/05/04 10:11:20;;;;;;;2.77;1.63;;;;;;;;;;5013258;28;20550;-84
2022/05/04 10:13:46;;;;;;;2.50;1.70;;;;;;;;;;5007148;28;20412;-82
2022/05/04 10:16:13;;;;;;;2.00;1.70;;;;;;;;;;5016389;28;20997;-83
2022/05/04 10:18:40;;;;;;;2.40;1.70;;;;;;;;;;5018047;28;20419;-84
2022/05/04 10:21:06;;;;;;;2.80;1.70;;;;;;;;;;5013161;28;20455;-83
2022/05/04 10:23:35;;;;;;;2.20;1.70;;;;;;;;;;5025750;28;20422;-84
2022/05/04 10:26:04;;;;;;;3.40;1.57;;;;;;;;;;5010979;28;20420;-84
2022/05/04 10:28:36;;;;;;;2.87;1.60;;;;;;;;;;5027555;28;20418;-85
2022/05/04 10:31:07;;;;;;;3.10;1.97;;;;;;;;;;5011242;28;20423;-87
2022/05/04 10:33:34;;;;;;;2.87;1.80;;;;;;;;;;5018739;28;20513;-86
2022/05/04 10:36:19;;;;;;;2.17;1.80;;;;;;;;;;5031297;28;20423;-86
2022/05/04 10:38:46;;;;;;;6.33;1.93;;;;;;;;;;5020594;28;20427;-84
2022/05/04 10:41:12;;;;;;;2.33;1.70;;;;;;;;;;5028202;28;20462;-83
2022/05/04 10:43:47;;;;;;;3.27;2.00;;;;;;;;;;5045890;28;20402;-86
2022/05/04 10:46:21;;;;;;;3.37;1.90;;;;;;;;;;5035420;28;20413;-86
2022/05/04 10:48:57;;;;;;;2.40;1.70;;;;;;;;;;5028971;28;20912;-86
2022/05/04 10:51:24;;;;;;;2.10;1.60;;;;;;;;;;5027742;28;20441;-82
2022/05/04 10:53:53;;;;;;;3.37;2.23;;;;;;;;;;5036035;28;20406;-87
2022/05/04 10:56:21;;;;;;;3.13;2.07;;;;;;;;;;5032094;28;20499;-86
2022/05/04 10:58:50;;;;;;;3.67;2.47;;;;;;;;;;5013043;28;20492;-87
2022/05/04 11:01:20;;;;;;;5.40;3.57;;;;;;;;;;5038484;28;20814;-86
2022/05/04 11:03:56;;;;;;;4.77;3.30;;;;;;;;;;5012640;28;20403;-84
2022/05/04 11:06:23;;;;;;;11.43;4.87;;;;;;;;;;5022701;28;20414;-82
2022/05/04 11:08:50;;;;;;;9.23;4.67;;;;;;;;;;5015164;28;20410;-84
2022/05/04 11:11:16;;;;;;;16.03;7.03;;;;;;;;;;5023733;28;20437;-84
2022/05/04 11:13:45;;;;;;;10.67;6.67;;;;;;;;;;5015537;28;20418;-85
2022/05/04 11:16:14;;;;;;;9.33;6.57;;;;;;;;;;5031595;28;20418;-85
2022/05/04 11:18:40;;;;;;;21.83;10.47;;;;;;;;;;5020456;28;20876;-83
2022/05/04 11:21:16;;;;;;;12.97;8.77;;;;;;;;;;5024392;28;20450;-86
2022/05/04 11:23:49;;;;;;;30.17;9.40;;;;;;;;;;5034514;28;20818;-84
2022/05/04 11:26:19;;;;;;;18.70;7.90;;;;;;;;;;5031357;28;20398;-85
2022/05/04 11:28:46;;;;;;;11.63;7.40;;;;;;;;;;5026039;28;20470;-84
2022/05/04 11:31:12;;;;;;;9.33;7.47;;;;;;;;;;5037337;28;20779;-85
2022/05/04 11:33:40;;;;;;;11.30;9.53;;;;;;;;;;5036498;28;20442;-85
2022/05/04 11:36:07;;;;;;;12.73;10.80;;;;;;;;;;5027885;28;20892;-83
2022/05/04 11:38:33;;;;;;;12.80;10.37;;;;;;;;;;5034411;28;20429;-84
2022/05/04 11:41:01;;;;;;;9.47;8.30;;;;;;;;;;5024106;28;20455;-85
2022/05/04 11:43:28;;;;;;;10.80;8.87;;;;;;;;;;5036864;28;20422;-86
2022/05/04 11:45:55;;;;;;;11.73;6.47;;;;;;;;;;5029493;28;20430;-86
2022/05/04 11:48:21;;;;;;;8.97;6.90;;;;;;;;;;5028410;28;20423;-84
2022/05/04 11:50:48;;;;;;;6.43;5.63;;;;;;;;;;5031936;28;20406;-84
2022/05/04 11:53:14;;;;;;;5.77;4.53;;;;;;;;;;5023549;28;20439;-85
2022/05/04 11:55:40;;;;;;;10.43;5.13;;;;;;;;;;5035038;28;20418;-85
2022/05/04 11:58:08;;;;;;;8.30;4.30;;;;;;;;;;5029499;28;20429;-84
2022/05/04 12:00:34;;;;;;;8.80;4.33;;;;;;;;;;5027862;28;20446;-85
2022/05/04 12:03:01;;;;;;;6.20;3.70;;;;;;;;;;5019634;28;20435;-84
2022/05/04 12:05:27;;;;;;;5.93;4.10;;;;;;;;;;5015719;28;20776;-85
2022/05/04 12:07:53;;;;;;;6.20;4.47;;;;;;;;;;5015231;28;20471;-83
2022/05/04 12:10:19;;;;;;;4.67;4.20;;;;;;;;;;5022924;28;20760;-84
2022/05/04 12:12:45;;;;;;;6.10;4.40;;;;;;;;;;5023825;28;20841;-84
2022/05/04 12:15:12;;;;;;;12.67;7.40;;;;;;;;;;5033058;28;20420;-83
2022/05/04 12:17:38;;;;;;;7.67;5.20;;;;;;;;;;5018826;28;20767;-84
2022/05/04 12:20:05;;;;;;;18.80;5.70;;;;;;;;;;5027019;28;20493;-85
2022/05/04 12:22:31;;;;;;;12.27;5.03;;;;;;;;;;5032187;28;20435;-86
2022/05/04 12:24:57;;;;;;;5.70;5.10;;;;;;;;;;5021720;28;20785;-84
2022/05/04 12:27:24;;;;;;;5.20;4.60;;;;;;;;;;5034619;28;20428;-86
2022/05/04 12:35:21;;;;;;;3.57;2.47;;;;;;;;;;5025335;28;20498;-87
2022/05/04 12:37:51;;;;;;;6.33;3.57;;;;;;;;;;5025935;28;20418;-86
2022/05/04 12:40:17;;;;;;;2.83;2.53;;;;;;;;;;5020060;28;21041;-84
2022/05/04 12:42:43;;;;;;;4.40;2.80;;;;;;;;;;5016693;28;20812;-86
2022/05/04 12:45:15;;;;;;;5.80;3.30;;;;;;;;;;5010492;28;20496;-83
2022/05/04 12:47:41;;;;;;;4.00;2.80;;;;;;;;;;5014629;28;20399;-85
2022/05/04 12:50:08;;;;;;;4.83;3.60;;;;;;;;;;5037818;28;20505;-87
2022/05/04 12:52:38;;;;;;;3.23;2.40;;;;;;;;;;5013664;28;20452;-88
2022/05/04 12:55:07;;;;;;;2.83;2.47;;;;;;;;;;5032572;28;20431;-86
2022/05/04 12:57:33;;;;;;;4.60;3.20;;;;;;;;;;5015016;28;20423;-87
2022/05/04 12:59:59;;;;;;;4.37;2.70;;;;;;;;;;5024155;28;20768;-87
2022/05/04 13:02:25;;;;;;;5.33;3.40;;;;;;;;;;5029196;28;20935;-87
2022/05/04 13:04:51;;;;;;;7.30;2.70;;;;;;;;;;5014899;28;20412;-87
2022/05/04 13:07:17;;;;;;;2.87;2.57;;;;;;;;;;5012701;28;20475;-89
2022/05/04 13:09:43;;;;;;;3.80;2.70;;;;;;;;;;5024359;28;20891;-86
2022/05/04 13:12:11;;;;;;;3.53;2.93;;;;;;;;;;5030970;28;20442;-86
2022/05/04 13:14:40;;;;;;;5.63;2.83;;;;;;;;;;5028235;28;20749;-86
2022/05/04 13:17:07;;;;;;;3.00;2.37;;;;;;;;;;5039749;28;20419;-87
2022/05/04 13:19:34;;;;;;;2.63;2.23;;;;;;;;;;5027793;28;20771;-86
2022/05/04 13:22:01;;;;;;;3.20;2.43;;;;;;;;;;5043645;28;20418;-88
2022/05/04 13:24:27;;;;;;;5.60;2.30;;;;;;;;;;5042835;28;20399;-85
2022/05/04 13:26:53;;;;;;;3.10;2.53;;;;;;;;;;5021263;28;20411;-88
2022/05/04 13:29:19;;;;;;;3.90;2.70;;;;;;;;;;5008265;28;20435;-85
2022/05/04 13:31:45;;;;;;;3.67;2.20;;;;;;;;;;5002550;28;20444;-86
2022/05/04 13:34:11;;;;;;;4.20;2.53;;;;;;;;;;5001282;28;20409;-86
2022/05/04 13:36:37;;;;;;;3.90;3.10;;;;;;;;;;5006630;28;20407;-86
2022/05/04 13:39:03;;;;;;;3.20;2.60;;;;;;;;;;5021408;28;20408;-88
2022/05/04 13:41:32;;;;;;;10.33;2.87;;;;;;;;;;5009351;28;20432;-86
2022/05/04 13:43:59;;;;;;;3.00;2.33;;;;;;;;;;5008272;28;20420;-86
2022/05/04 13:46:26;;;;;;;3.47;2.17;;;;;;;;;;5019576;28;20433;-87
2022/05/04 13:48:52;;;;;;;3.90;2.53;;;;;;;;;;5028273;28;20794;-84
2022/05/04 13:54:03;;;;;;;5.20;3.10;;;;;;;;;;5004456;28;20439;-87
2022/05/04 13:56:29;;;;;;;3.97;2.73;;;;;;;;;;5010790;28;20415;-86
2022/05/04 13:58:55;;;;;;;2.50;2.10;;;;;;;;;;5005613;28;20419;-87
2022/05/04 14:01:21;;;;;;;5.00;2.87;;;;;;;;;;5002617;28;20502;-88
2022/05/04 14:03:49;;;;;;;3.77;2.57;;;;;;;;;;5002936;28;20511;-86
2022/05/04 14:06:15;;;;;;;2.60;2.13;;;;;;;;;;5010948;28;20461;-87
2022/05/04 14:08:42;;;;;;;3.00;2.10;;;;;;;;;;5007256;28;20428;-87
2022/05/04 14:11:08;;;;;;;3.43;2.00;;;;;;;;;;5003606;28;20435;-86
2022/05/04 14:13:34;;;;;;;3.80;2.00;;;;;;;;;;5018606;28;20430;-87
2022/05/04 14:16:00;;;;;;;3.77;2.23;;;;;;;;;;5021925;28;20408;-87
2022/05/04 14:18:31;;;;;;;3.33;2.50;;;;;;;;;;5022500;28;20412;-88
2022/05/04 14:20:59;;;;;;;2.83;2.27;;;;;;;;;;5023372;28;20830;-87
2022/05/04 14:23:25;;;;;;;3.20;2.43;;;;;;;;;;5021824;28;20497;-88
2022/05/04 14:25:51;;;;;;;4.37;2.57;;;;;;;;;;5023145;28;20486;-89
2022/05/04 14:28:19;;;;;;;3.80;2.10;;;;;;;;;;5019218;28;20470;-87
2022/05/04 14:30:46;;;;;;;6.33;3.93;;;;;;;;;;5020221;28;20440;-88
2022/05/04 14:33:13;;;;;;;4.30;2.40;;;;;;;;;;5021414;28;20427;-87
2022/05/04 14:35:39;;;;;;;5.07;3.10;;;;;;;;;;5020480;28;20885;-87
2022/05/04 14:38:05;;;;;;;2.87;2.23;;;;;;;;;;5018779;28;20411;-87
2022/05/04 14:40:32;;;;;;;3.67;2.37;;;;;;;;;;5018441;28;20465;-87
2022/05/04 14:43:01;;;;;;;3.70;2.30;;;;;;;;;;5011791;28;20442;-87
2022/05/04 14:45:27;;;;;;;3.70;2.30;;;;;;;;;;5013788;28;20498;-86
2022/05/04 14:47:54;;;;;;;2.10;1.70;;;;;;;;;;5019751;28;20407;-86
2022/05/04 14:50:21;;;;;;;2.60;2.23;;;;;;;;;;5019181;28;20418;-86
2022/05/04 14:52:47;;;;;;;4.07;2.80;;;;;;;;;;5019752;28;20458;-86
2022/05/04 14:55:13;;;;;;;4.67;2.70;;;;;;;;;;5020004;28;20744;-86
2022/05/04 14:57:39;;;;;;;4.33;2.70;;;;;;;;;;5019849;28;20921;-86
2022/05/04 15:00:05;;;;;;;4.43;2.83;;;;;;;;;;5012600;28;20530;-87
2022/05/04 15:02:31;;;;;;;3.37;2.30;;;;;;;;;;5005184;28;20793;-86
2022/05/04 15:05:05;;;;;;;2.57;1.93;;;;;;;;;;5003985;28;20500;-85
2022/05/04 15:07:32;;;;;;;4.30;2.88;;;;;;;;;;5010495;28;20469;-86
2022/05/04 15:09:59;;;;;;;3.90;3.20;;;;;;;;;;4999299;28;20226;-86
2022/05/04 15:12:25;;;;;;;3.63;1.80;;;;;;;;;;5009994;28;20973;-86
2022/05/04 15:14:51;;;;;;;4.30;2.90;;;;;;;;;;5021255;28;20494;-86
2022/05/04 15:17:17;;;;;;;3.23;2.50;;;;;;;;;;5019748;28;20423;-86
2022/05/04 15:19:44;;;;;;;4.03;3.20;;;;;;;;;;5017763;28;20487;-86